Girard, Georgia
Current Conditions -  °F | °C
As of 4:15 PM on Sunday 23 Nov 2014 (Local Time) from KBNL Reporting Station
Overcast Overcast  
Wind Chill: 64°   Ceiling: 600
Heat Index: 64°   Visibility: NA
Dew Point: 64°   Wind: 12mph
Humidity: 100%   Direction: 130°SE
Pressure: 29.85"   Gusts: NA
Location:  33.04°N, 81.71°W
Report Text: KBNL 232115Z AUTO 13010KT OVC006 18/18 A2985 RMK AO2
Loading
Personal Weather Stations






























Interactive Weather Map New forecast layout! Learn more

10-Day Weather Forecast

Advertisements
Track Severe Weather on mobile